Campanya meteocatpedra

Dades EMA Torres de Segre

?
?
Resum diari 22:30 TU
Dades diàries de l'estació meteorològica
Temperatura mitjana 24.0 °C
Temperatura màxima 32.4 °C 16:06 TU
Temperatura mínima 15.5 °C 4:21 TU
Humitat relativa mitjana 41%
Precipitació acumulada 0.0 mm
Ratxa màxima del vent (2 m) 33.1 km/h - 167º 18:20 TU
Irradiació solar global 28.7 MJ/m2

El tram horari està expressat en Temps Universal (TU). Cal sumar una hora en horari d'hivern i dues en horari d'estiu per passar a l'hora oficial.

Torres de Segre

Metadades estació meteorol´gica
Municipi Torres de Segre
Comarca Segrià
Altitud 215 m
Data alta 02.07.2007
Estat actual Operativa
Dades de període
Període
TU
TM
°C
TX
°C
TN
°C
HRM
%
PPT
mm
VVM (2 m)
km/h
DVM (2 m)
graus
VVX (2 m)
km/h
RS
W/m2
00:00 - 00:30 19.3 19.5 18.7 52 0.0 6.1 152 8.6 0
00:30 - 01:00 18.7 19.1 18.4 53 0.0 2.9 152 5.8 0
01:00 - 01:30 18.5 19.1 18.2 55 0.0 1.8 346 4.3 0
01:30 - 02:00 17.8 18.2 17.5 60 0.0 1.8 353 4.0 0
02:00 - 02:30 17.6 17.7 17.4 62 0.0 3.6 86 7.2 0
02:30 - 03:00 16.9 17.4 16.7 62 0.0 6.1 116 10.1 0
03:00 - 03:30 16.6 16.7 16.3 62 0.0 5.8 117 9.0 0
03:30 - 04:00 16.4 16.8 15.8 62 0.0 6.1 117 9.7 0
04:00 - 04:30 15.6 15.9 15.5 65 0.0 4.3 113 7.2 0
04:30 - 05:00 16.2 17.1 15.7 63 0.0 4.3 103 6.5 17
05:00 - 05:30 17.3 17.6 17.1 59 0.0 2.5 48 6.5 67
05:30 - 06:00 17.8 18.5 17.0 62 0.0 1.1 298 4.0 143
06:00 - 06:30 17.7 18.1 17.2 67 0.0 1.1 297 3.6 234
06:30 - 07:00 18.4 19.0 18.1 65 0.0 2.2 343 4.7 329
07:00 - 07:30 19.7 20.4 18.9 61 0.0 2.9 351 5.0 422
07:30 - 08:00 21.3 21.9 20.5 56 0.0 2.5 335 6.1 507
08:00 - 08:30 22.5 23.2 21.7 52 0.0 3.2 335 6.1 589
08:30 - 09:00 23.8 24.3 23.1 47 0.0 2.9 310 7.2 670
09:00 - 09:30 25.1 25.5 24.2 43 0.0 3.2 353 9.0 740
09:30 - 10:00 26.2 26.7 25.6 39 0.0 3.6 331 8.3 799
10:00 - 10:30 27.0 27.6 26.4 34 0.0 3.6 334 7.9 848
10:30 - 11:00 28.2 28.7 27.6 31 0.0 4.7 308 10.4 886
11:00 - 11:30 28.4 28.9 28.0 29 0.0 5.0 312 14.4 913
11:30 - 12:00 29.1 29.8 28.6 28 0.0 5.4 343 11.9 920
12:00 - 12:30 29.6 30.0 29.3 26 0.0 6.5 357 13.7 918
12:30 - 13:00 30.2 30.7 29.5 26 0.0 6.1 342 14.8 905
13:00 - 13:30 30.5 30.9 29.9 24 0.0 5.4 23 13.3 876
13:30 - 14:00 30.9 31.3 30.5 24 0.0 5.4 316 13.7 833
14:00 - 14:30 31.1 31.5 30.9 23 0.0 4.7 344 11.9 781
14:30 - 15:00 31.3 32.0 31.0 24 0.0 4.3 341 13.3 718
15:00 - 15:30 31.6 31.9 31.2 24 0.0 5.4 360 13.7 649
15:30 - 16:00 31.7 31.8 31.4 22 0.0 5.0 350 11.9 573
16:00 - 16:30 31.1 32.4 30.3 22 0.0 14.4 176 32.8 494
16:30 - 17:00 29.9 30.2 29.7 23 0.0 19.4 180 30.6 412
17:00 - 17:30 29.4 29.6 29.1 22 0.0 19.8 176 31.0 319
17:30 - 18:00 28.8 29.1 28.5 23 0.0 20.2 174 30.2 224
18:00 - 18:30 27.9 28.4 27.4 24 0.0 20.9 172 33.1 135
18:30 - 19:00 26.9 27.4 26.4 24 0.0 19.4 174 31.3 56
19:00 - 19:30 25.8 26.4 25.2 28 0.0 18.4 174 27.7 6
19:30 - 20:00 24.9 25.2 24.5 29 0.0 18.7 173 28.8 0
20:00 - 20:30 24.1 24.5 23.9 31 0.0 15.5 169 25.6 0
20:30 - 21:00 23.8 24.0 23.5 33 0.0 11.5 178 23.8 0
21:00 - 21:30 22.9 23.5 22.0 36 0.0 4.3 200 14.8 0
21:30 - 22:00 22.9 23.3 22.4 36 0.0 5.0 128 16.6 0
22:00 - 22:30 22.4 23.1 21.6 36 0.0 4.3 64 10.8 0
22:30 - 23:00 21.6 21.9 21.1 39 0.0 5.8 85 10.1 0

Les dades en taronja només han passat un control de qualitat automàtic. Resta pendent la seva validació definitiva.